sensor_id;sensor_type;location;lat;lon;timestamp;pressure;altitude;pressure_sealevel;temperature;humidity
70954;BME280;58618;47.490;8.736;2022-07-12T00:00:45;97096.09;;;14.38;86.63
70954;BME280;58618;47.490;8.736;2022-07-12T00:03:34;97105.88;;;14.41;87.05
70954;BME280;58618;47.490;8.736;2022-07-12T00:06:22;97101.91;;;14.49;87.41
70954;BME280;58618;47.490;8.736;2022-07-12T00:09:09;97097.34;;;14.41;87.90
70954;BME280;58618;47.490;8.736;2022-07-12T00:11:59;97092.97;;;14.36;87.55
70954;BME280;58618;47.490;8.736;2022-07-12T00:14:46;97088.63;;;14.31;88.13
70954;BME280;58618;47.490;8.736;2022-07-12T00:17:34;97084.81;;;14.24;88.01
70954;BME280;58618;47.490;8.736;2022-07-12T00:20:23;97094.09;;;14.11;87.93
70954;BME280;58618;47.490;8.736;2022-07-12T00:23:10;97099.69;;;14.00;88.31
70954;BME280;58618;47.490;8.736;2022-07-12T00:25:57;97088.88;;;13.92;89.27
70954;BME280;58618;47.490;8.736;2022-07-12T00:28:48;97089.84;;;13.96;89.31
70954;BME280;58618;47.490;8.736;2022-07-12T00:31:35;97089.38;;;13.94;89.98
70954;BME280;58618;47.490;8.736;2022-07-12T00:34:22;97092.88;;;13.85;89.59
70954;BME280;58618;47.490;8.736;2022-07-12T00:37:11;97097.41;;;13.74;89.96
70954;BME280;58618;47.490;8.736;2022-07-12T00:39:58;97092.81;;;13.66;89.90
70954;BME280;58618;47.490;8.736;2022-07-12T00:42:46;97095.34;;;13.71;91.34
70954;BME280;58618;47.490;8.736;2022-07-12T00:45:34;97099.50;;;13.72;90.77
70954;BME280;58618;47.490;8.736;2022-07-12T00:48:22;97095.25;;;13.58;91.11
70954;BME280;58618;47.490;8.736;2022-07-12T00:51:10;97097.19;;;13.47;91.16
70954;BME280;58618;47.490;8.736;2022-07-12T00:53:58;97099.38;;;13.35;91.47
70954;BME280;58618;47.490;8.736;2022-07-12T00:56:46;97102.69;;;13.40;92.45
70954;BME280;58618;47.490;8.736;2022-07-12T00:59:34;97098.81;;;13.38;92.35
70954;BME280;58618;47.490;8.736;2022-07-12T01:02:22;97096.84;;;13.30;92.66
70954;BME280;58618;47.490;8.736;2022-07-12T01:05:10;97098.16;;;13.27;92.59
70954;BME280;58618;47.490;8.736;2022-07-12T01:07:58;97095.84;;;13.26;93.12
70954;BME280;58618;47.490;8.736;2022-07-12T01:10:47;97093.31;;;13.21;92.67
70954;BME280;58618;47.490;8.736;2022-07-12T01:13:35;97098.91;;;13.28;92.74
70954;BME280;58618;47.490;8.736;2022-07-12T01:16:23;97095.56;;;13.27;93.08
70954;BME280;58618;47.490;8.736;2022-07-12T01:19:12;97098.91;;;13.28;93.17
70954;BME280;58618;47.490;8.736;2022-07-12T01:22:06;97095.28;;;13.29;92.55
70954;BME280;58618;47.490;8.736;2022-07-12T01:24:57;97094.34;;;13.20;93.17
70954;BME280;58618;47.490;8.736;2022-07-12T01:27:44;97091.56;;;13.11;93.62
70954;BME280;58618;47.490;8.736;2022-07-12T01:30:32;97086.78;;;13.23;93.74
70954;BME280;58618;47.490;8.736;2022-07-12T01:33:19;97084.81;;;13.15;93.75
70954;BME280;58618;47.490;8.736;2022-07-12T01:36:07;97099.53;;;13.20;93.45
70954;BME280;58618;47.490;8.736;2022-07-12T01:38:54;97093.91;;;13.07;93.25
70954;BME280;58618;47.490;8.736;2022-07-12T01:41:43;97090.84;;;13.05;93.63
70954;BME280;58618;47.490;8.736;2022-07-12T01:44:31;97090.38;;;12.98;93.44
70954;BME280;58618;47.490;8.736;2022-07-12T01:47:19;97088.34;;;12.90;94.41
70954;BME280;58618;47.490;8.736;2022-07-12T01:50:08;97087.38;;;12.86;94.88
70954;BME280;58618;47.490;8.736;2022-07-12T01:52:56;97094.66;;;12.84;95.18
70954;BME280;58618;47.490;8.736;2022-07-12T01:55:43;97093.09;;;12.83;95.55
70954;BME280;58618;47.490;8.736;2022-07-12T01:58:32;97092.38;;;12.78;95.44
70954;BME280;58618;47.490;8.736;2022-07-12T02:01:20;97088.47;;;12.75;96.05
70954;BME280;58618;47.490;8.736;2022-07-12T02:04:07;97087.44;;;12.76;95.56
70954;BME280;58618;47.490;8.736;2022-07-12T02:06:55;97087.44;;;12.76;95.30
70954;BME280;58618;47.490;8.736;2022-07-12T02:09:43;97087.44;;;12.76;95.77
70954;BME280;58618;47.490;8.736;2022-07-12T02:12:30;97082.03;;;12.73;95.13
70954;BME280;58618;47.490;8.736;2022-07-12T02:15:19;97089.47;;;12.84;95.12
70954;BME280;58618;47.490;8.736;2022-07-12T02:18:06;97087.91;;;12.83;95.18
70954;BME280;58618;47.490;8.736;2022-07-12T02:20:53;97087.91;;;12.83;95.55
70954;BME280;58618;47.490;8.736;2022-07-12T02:23:40;97091.28;;;12.84;95.99
70954;BME280;58618;47.490;8.736;2022-07-12T02:26:28;97094.03;;;12.92;95.50
70954;BME280;58618;47.490;8.736;2022-07-12T02:29:15;97093.63;;;12.80;94.69
70954;BME280;58618;47.490;8.736;2022-07-12T02:32:04;97091.53;;;12.82;95.69
70954;BME280;58618;47.490;8.736;2022-07-12T02:34:52;97097.19;;;12.89;95.72
70954;BME280;58618;47.490;8.736;2022-07-12T02:37:39;97094.19;;;12.77;95.49
70954;BME280;58618;47.490;8.736;2022-07-12T02:40:26;97091.63;;;12.72;95.84
70954;BME280;58618;47.490;8.736;2022-07-12T02:43:33;97096.31;;;12.65;95.88
70954;BME280;58618;47.490;8.736;2022-07-12T02:46:20;97098.97;;;12.60;96.13
70954;BME280;58618;47.490;8.736;2022-07-12T02:49:09;97097.66;;;12.62;96.46
70954;BME280;58618;47.490;8.736;2022-07-12T02:51:56;97094.34;;;12.57;96.41
70954;BME280;58618;47.490;8.736;2022-07-12T02:54:44;97099.97;;;12.64;96.45
70954;BME280;58618;47.490;8.736;2022-07-12T02:57:31;97101.50;;;12.65;96.60
70954;BME280;58618;47.490;8.736;2022-07-12T03:00:18;97094.34;;;12.57;96.36
70954;BME280;58618;47.490;8.736;2022-07-12T03:03:06;97100.97;;;12.68;96.88
70954;BME280;58618;47.490;8.736;2022-07-12T03:05:55;97106.69;;;12.65;96.52
70954;BME280;58618;47.490;8.736;2022-07-12T03:08:43;97108.31;;;12.56;96.08
70954;BME280;58618;47.490;8.736;2022-07-12T03:11:30;97107.88;;;12.44;96.57
70954;BME280;58618;47.490;8.736;2022-07-12T03:14:18;97104.28;;;12.40;97.47
70954;BME280;58618;47.490;8.736;2022-07-12T03:17:05;97106.34;;;12.38;96.88
70954;BME280;58618;47.490;8.736;2022-07-12T03:19:52;97105.81;;;12.41;97.38
70954;BME280;58618;47.490;8.736;2022-07-12T03:22:41;97112.47;;;12.52;97.40
70954;BME280;58618;47.490;8.736;2022-07-12T03:25:29;97106.28;;;12.48;96.38
70954;BME280;58618;47.490;8.736;2022-07-12T03:28:17;97116.06;;;12.56;97.56
70954;BME280;58618;47.490;8.736;2022-07-12T03:31:04;97117.91;;;12.50;96.40
70954;BME280;58618;47.490;8.736;2022-07-12T03:33:52;97123.88;;;12.51;96.51
70954;BME280;58618;47.490;8.736;2022-07-12T03:36:39;97126.75;;;12.44;96.28
70954;BME280;58618;47.490;8.736;2022-07-12T03:39:28;97118.50;;;12.42;96.44
70954;BME280;58618;47.490;8.736;2022-07-12T03:42:15;97121.13;;;12.37;96.56
70954;BME280;58618;47.490;8.736;2022-07-12T03:45:03;97116.25;;;12.31;96.25
70954;BME280;58618;47.490;8.736;2022-07-12T03:47:50;97122.44;;;12.30;96.69
70954;BME280;58618;47.490;8.736;2022-07-12T03:50:38;97114.69;;;12.30;97.25
70954;BME280;58618;47.490;8.736;2022-07-12T03:53:25;97128.13;;;12.32;96.54
70954;BME280;58618;47.490;8.736;2022-07-12T03:56:14;97129.16;;;12.31;96.86
70954;BME280;58618;47.490;8.736;2022-07-12T03:59:22;97132.25;;;12.33;96.65
70954;BME280;58618;47.490;8.736;2022-07-12T04:02:09;97130.41;;;12.38;96.96
70954;BME280;58618;47.490;8.736;2022-07-12T04:04:57;97130.09;;;12.50;97.34
70954;BME280;58618;47.490;8.736;2022-07-12T04:07:44;97137.19;;;12.73;96.95
70954;BME280;58618;47.490;8.736;2022-07-12T04:10:32;97129.94;;;13.04;96.55
70954;BME280;58618;47.490;8.736;2022-07-12T04:13:20;97140.63;;;13.55;93.74
70954;BME280;58618;47.490;8.736;2022-07-12T04:16:08;97137.66;;;13.90;92.08
70954;BME280;58618;47.490;8.736;2022-07-12T04:18:55;97147.16;;;14.19;90.42
70954;BME280;58618;47.490;8.736;2022-07-12T04:21:43;97143.44;;;14.25;90.75
70954;BME280;58618;47.490;8.736;2022-07-12T04:24:30;97142.88;;;14.52;89.23
70954;BME280;58618;47.490;8.736;2022-07-12T04:27:19;97140.97;;;14.57;88.62
70954;BME280;58618;47.490;8.736;2022-07-12T04:30:09;97135.16;;;14.98;86.71
70954;BME280;58618;47.490;8.736;2022-07-12T04:32:56;97132.16;;;16.32;80.27
70954;BME280;58618;47.490;8.736;2022-07-12T04:35:44;97134.66;;;17.57;74.42
70954;BME280;58618;47.490;8.736;2022-07-12T04:38:31;97143.72;;;17.99;71.84
70954;BME280;58618;47.490;8.736;2022-07-12T04:41:19;97145.34;;;18.78;68.77
70954;BME280;58618;47.490;8.736;2022-07-12T04:44:06;97141.56;;;19.30;67.42
70954;BME280;58618;47.490;8.736;2022-07-12T04:46:55;97149.09;;;20.37;61.80
70954;BME280;58618;47.490;8.736;2022-07-12T04:49:42;97151.88;;;21.27;59.58
70954;BME280;58618;47.490;8.736;2022-07-12T04:52:30;97147.13;;;21.66;57.26
70954;BME280;58618;47.490;8.736;2022-07-12T04:55:17;97160.47;;;21.85;56.96
70954;BME280;58618;47.490;8.736;2022-07-12T04:58:04;97165.03;;;22.49;53.91
70954;BME280;58618;47.490;8.736;2022-07-12T05:00:52;97157.25;;;22.92;52.82
70954;BME280;58618;47.490;8.736;2022-07-12T05:03:40;97167.31;;;22.90;52.56
70954;BME280;58618;47.490;8.736;2022-07-12T05:06:28;97154.16;;;22.62;53.86
70954;BME280;58618;47.490;8.736;2022-07-12T05:09:15;97160.22;;;22.51;52.98
70954;BME280;58618;47.490;8.736;2022-07-12T05:12:04;97166.84;;;23.00;51.72
70954;BME280;58618;47.490;8.736;2022-07-12T05:14:52;97152.44;;;22.94;52.58
70954;BME280;58618;47.490;8.736;2022-07-12T05:17:39;97166.19;;;23.78;51.62
70954;BME280;58618;47.490;8.736;2022-07-12T05:20:28;97163.84;;;24.97;46.36
70954;BME280;58618;47.490;8.736;2022-07-12T05:23:16;97162.78;;;24.63;46.92
70954;BME280;58618;47.490;8.736;2022-07-12T05:26:04;97173.97;;;24.57;46.52
70954;BME280;58618;47.490;8.736;2022-07-12T05:28:51;97170.94;;;26.07;42.90
70954;BME280;58618;47.490;8.736;2022-07-12T05:31:38;97174.72;;;28.21;38.51
70954;BME280;58618;47.490;8.736;2022-07-12T05:34:26;97176.59;;;28.96;36.34
70954;BME280;58618;47.490;8.736;2022-07-12T05:37:14;97176.59;;;28.96;36.72
70954;BME280;58618;47.490;8.736;2022-07-12T05:40:02;97188.13;;;28.45;37.51
70954;BME280;58618;47.490;8.736;2022-07-12T05:42:49;97183.78;;;28.88;36.83
70954;BME280;58618;47.490;8.736;2022-07-12T05:45:37;97194.63;;;28.55;37.91
70954;BME280;58618;47.490;8.736;2022-07-12T05:48:24;97190.31;;;29.16;36.60
70954;BME280;58618;47.490;8.736;2022-07-12T05:51:12;97196.91;;;27.51;39.74
70954;BME280;58618;47.490;8.736;2022-07-12T05:54:18;97197.66;;;28.57;38.23
70954;BME280;58618;47.490;8.736;2022-07-12T05:57:05;97194.56;;;29.42;35.78
70954;BME280;58618;47.490;8.736;2022-07-12T05:59:52;97189.19;;;29.24;36.76
70954;BME280;58618;47.490;8.736;2022-07-12T06:02:40;97191.16;;;27.89;38.34
70954;BME280;58618;47.490;8.736;2022-07-12T06:05:27;97183.56;;;28.42;38.25
70954;BME280;58618;47.490;8.736;2022-07-12T06:08:15;97177.03;;;29.30;35.98
70954;BME280;58618;47.490;8.736;2022-07-12T06:11:04;97178.88;;;28.98;36.82
70954;BME280;58618;47.490;8.736;2022-07-12T06:13:51;97190.19;;;30.79;32.79
70954;BME280;58618;47.490;8.736;2022-07-12T06:16:39;97191.84;;;30.44;34.13
70954;BME280;58618;47.490;8.736;2022-07-12T06:19:26;97190.78;;;29.53;35.32
70954;BME280;58618;47.490;8.736;2022-07-12T06:22:13;97206.59;;;31.46;31.06
70954;BME280;58618;47.490;8.736;2022-07-12T06:25:01;97205.44;;;30.75;33.19
70954;BME280;58618;47.490;8.736;2022-07-12T06:27:50;97210.91;;;30.04;34.08
70954;BME280;58618;47.490;8.736;2022-07-12T06:30:37;97215.22;;;30.99;32.42
70954;BME280;58618;47.490;8.736;2022-07-12T06:33:25;97207.31;;;31.54;31.50
70954;BME280;58618;47.490;8.736;2022-07-12T06:36:12;97202.53;;;30.09;35.20
70954;BME280;58618;47.490;8.736;2022-07-12T06:39:00;97207.09;;;29.84;34.62
70954;BME280;58618;47.490;8.736;2022-07-12T06:41:47;97207.69;;;30.87;33.34
70954;BME280;58618;47.490;8.736;2022-07-12T06:44:36;97212.56;;;30.99;32.77
70954;BME280;58618;47.490;8.736;2022-07-12T06:47:23;97211.25;;;28.45;38.07
70954;BME280;58618;47.490;8.736;2022-07-12T06:50:11;97210.91;;;29.75;35.28
70954;BME280;58618;47.490;8.736;2022-07-12T06:52:59;97221.06;;;30.76;34.32
70954;BME280;58618;47.490;8.736;2022-07-12T06:55:46;97215.84;;;29.80;35.45
70954;BME280;58618;47.490;8.736;2022-07-12T06:58:34;97215.28;;;28.93;36.11
70954;BME280;58618;47.490;8.736;2022-07-12T07:01:22;97222.75;;;27.61;39.55
70954;BME280;58618;47.490;8.736;2022-07-12T07:04:10;97215.84;;;30.09;34.64
70954;BME280;58618;47.490;8.736;2022-07-12T07:06:57;97222.28;;;30.43;33.89
70954;BME280;58618;47.490;8.736;2022-07-12T07:09:45;97214.66;;;30.52;33.71
70954;BME280;58618;47.490;8.736;2022-07-12T07:12:32;97212.16;;;31.11;32.91
70954;BME280;58618;47.490;8.736;2022-07-12T07:15:20;97199.25;;;30.99;32.16
70954;BME280;58618;47.490;8.736;2022-07-12T07:18:09;97203.19;;;29.07;35.44
70954;BME280;58618;47.490;8.736;2022-07-12T07:20:56;97207.88;;;29.73;35.16
70954;BME280;58618;47.490;8.736;2022-07-12T07:23:43;97208.16;;;29.12;37.15
70954;BME280;58618;47.490;8.736;2022-07-12T07:26:31;97208.56;;;30.52;33.62
70954;BME280;58618;47.490;8.736;2022-07-12T07:29:20;97218.50;;;29.45;35.92
70954;BME280;58618;47.490;8.736;2022-07-12T07:32:25;97227.69;;;28.68;37.00
70954;BME280;58618;47.490;8.736;2022-07-12T07:35:14;97220.84;;;29.93;35.13
70954;BME280;58618;47.490;8.736;2022-07-12T07:38:05;97220.78;;;29.64;35.15
70954;BME280;58618;47.490;8.736;2022-07-12T07:40:54;97229.00;;;29.06;36.15
70954;BME280;58618;47.490;8.736;2022-07-12T07:43:41;97217.78;;;29.98;35.27
70954;BME280;58618;47.490;8.736;2022-07-12T07:46:28;97230.06;;;28.84;36.86
70954;BME280;58618;47.490;8.736;2022-07-12T07:49:16;97231.78;;;28.51;37.14
70954;BME280;58618;47.490;8.736;2022-07-12T07:52:05;97222.94;;;29.09;36.80
70954;BME280;58618;47.490;8.736;2022-07-12T07:54:53;97222.56;;;28.35;38.28
70954;BME280;58618;47.490;8.736;2022-07-12T07:57:40;97222.22;;;29.30;36.77
70954;BME280;58618;47.490;8.736;2022-07-12T08:00:28;97222.50;;;26.17;42.80
70954;BME280;58618;47.490;8.736;2022-07-12T08:03:16;97230.25;;;27.52;40.36
70954;BME280;58618;47.490;8.736;2022-07-12T08:06:03;97227.16;;;28.38;38.50
70954;BME280;58618;47.490;8.736;2022-07-12T08:08:55;97231.31;;;29.22;37.76
70954;BME280;58618;47.490;8.736;2022-07-12T08:11:43;97236.16;;;27.75;41.32
70954;BME280;58618;47.490;8.736;2022-07-12T08:14:30;97243.34;;;28.87;37.28
70954;BME280;58618;47.490;8.736;2022-07-12T08:17:18;97234.53;;;27.67;39.85
70954;BME280;58618;47.490;8.736;2022-07-12T08:20:07;97226.22;;;27.65;40.20
70954;BME280;58618;47.490;8.736;2022-07-12T08:22:54;97228.56;;;27.77;39.94
70954;BME280;58618;47.490;8.736;2022-07-12T08:25:43;97226.47;;;26.86;41.48
70954;BME280;58618;47.490;8.736;2022-07-12T08:28:31;97228.00;;;27.20;44.14
70954;BME280;58618;47.490;8.736;2022-07-12T08:31:18;97226.94;;;28.09;38.98
70954;BME280;58618;47.490;8.736;2022-07-12T08:34:05;97221.44;;;29.15;37.17
70954;BME280;58618;47.490;8.736;2022-07-12T08:36:52;97223.69;;;26.49;42.74
70954;BME280;58618;47.490;8.736;2022-07-12T08:39:40;97220.22;;;26.19;42.75
70954;BME280;58618;47.490;8.736;2022-07-12T08:42:29;97232.25;;;27.28;40.51
70954;BME280;58618;47.490;8.736;2022-07-12T08:45:16;97224.41;;;27.02;41.20
70954;BME280;58618;47.490;8.736;2022-07-12T08:48:04;97235.00;;;26.20;42.94
70954;BME280;58618;47.490;8.736;2022-07-12T08:51:03;97227.31;;;25.43;45.06
70954;BME280;58618;47.490;8.736;2022-07-12T08:54:05;97221.16;;;25.81;44.27
70954;BME280;58618;47.490;8.736;2022-07-12T08:56:57;97227.25;;;26.30;41.24
70954;BME280;58618;47.490;8.736;2022-07-12T08:59:48;97222.16;;;27.04;41.50
70954;BME280;58618;47.490;8.736;2022-07-12T09:02:44;97227.25;;;26.30;41.79
70954;BME280;58618;47.490;8.736;2022-07-12T09:05:33;97226.22;;;26.65;40.86
70954;BME280;58618;47.490;8.736;2022-07-12T09:08:25;97228.91;;;25.93;41.38
70954;BME280;58618;47.490;8.736;2022-07-12T09:11:15;97228.16;;;26.41;42.13
70954;BME280;58618;47.490;8.736;2022-07-12T09:14:03;97213.22;;;26.86;39.92
70954;BME280;58618;47.490;8.736;2022-07-12T09:17:03;97217.53;;;25.89;41.29
70954;BME280;58618;47.490;8.736;2022-07-12T09:19:55;97223.50;;;25.86;40.94
70954;BME280;58618;47.490;8.736;2022-07-12T09:22:51;97225.06;;;26.13;39.60
70954;BME280;58618;47.490;8.736;2022-07-12T09:25:44;97229.88;;;26.57;38.98
70954;BME280;58618;47.490;8.736;2022-07-12T09:28:31;97218.75;;;25.95;39.54
70954;BME280;58618;47.490;8.736;2022-07-12T09:31:19;97226.47;;;27.19;38.50
70954;BME280;58618;47.490;8.736;2022-07-12T09:34:08;97230.84;;;26.45;38.93
70954;BME280;58618;47.490;8.736;2022-07-12T09:37:12;97237.88;;;26.90;35.84
70954;BME280;58618;47.490;8.736;2022-07-12T09:40:00;97232.09;;;26.55;38.06
70954;BME280;58618;47.490;8.736;2022-07-12T09:42:49;97231.88;;;25.46;40.06
70954;BME280;58618;47.490;8.736;2022-07-12T09:45:36;97223.59;;;25.05;40.99
70954;BME280;58618;47.490;8.736;2022-07-12T09:48:26;97230.50;;;26.46;38.90
70954;BME280;58618;47.490;8.736;2022-07-12T09:51:17;97235.91;;;26.04;37.75
70954;BME280;58618;47.490;8.736;2022-07-12T09:54:06;97213.88;;;27.09;37.35
70954;BME280;58618;47.490;8.736;2022-07-12T09:56:57;97226.72;;;26.47;38.29
70954;BME280;58618;47.490;8.736;2022-07-12T09:59:45;97225.53;;;25.70;38.82
70954;BME280;58618;47.490;8.736;2022-07-12T10:02:34;97230.56;;;26.01;37.38
70954;BME280;58618;47.490;8.736;2022-07-12T10:05:24;97230.41;;;25.90;39.34
70954;BME280;58618;47.490;8.736;2022-07-12T10:08:13;97234.38;;;25.58;39.48
70954;BME280;58618;47.490;8.736;2022-07-12T10:11:01;97231.72;;;24.97;39.83
70954;BME280;58618;47.490;8.736;2022-07-12T10:13:50;97217.78;;;24.80;38.32
70954;BME280;58618;47.490;8.736;2022-07-12T10:16:41;97228.38;;;25.00;40.21
70954;BME280;58618;47.490;8.736;2022-07-12T10:19:30;97225.97;;;24.75;39.96
70954;BME280;58618;47.490;8.736;2022-07-12T10:22:19;97241.66;;;25.03;39.17
70954;BME280;58618;47.490;8.736;2022-07-12T10:25:28;97227.56;;;24.26;40.80
70954;BME280;58618;47.490;8.736;2022-07-12T10:28:15;97241.59;;;24.65;39.54
70954;BME280;58618;47.490;8.736;2022-07-12T10:31:04;97242.88;;;24.55;40.83
70954;BME280;58618;47.490;8.736;2022-07-12T10:34:18;97241.63;;;24.49;41.06
70954;BME280;58618;47.490;8.736;2022-07-12T10:37:10;97250.16;;;24.43;41.18
70954;BME280;58618;47.490;8.736;2022-07-12T10:40:14;97240.31;;;24.74;41.77
70954;BME280;58618;47.490;8.736;2022-07-12T10:43:26;97241.22;;;24.47;40.94
70954;BME280;58618;47.490;8.736;2022-07-12T10:46:32;97244.25;;;24.49;40.34
70954;BME280;58618;47.490;8.736;2022-07-12T10:49:26;97249.00;;;24.59;39.78
70954;BME280;58618;47.490;8.736;2022-07-12T10:55:20;97242.72;;;24.48;39.33
70954;BME280;58618;47.490;8.736;2022-07-12T10:58:07;97230.91;;;24.58;39.65
70954;BME280;58618;47.490;8.736;2022-07-12T11:00:57;97236.75;;;24.67;38.49
70954;BME280;58618;47.490;8.736;2022-07-12T11:03:46;97247.69;;;24.03;39.34
70954;BME280;58618;47.490;8.736;2022-07-12T11:06:36;97243.28;;;24.07;40.31
70954;BME280;58618;47.490;8.736;2022-07-12T11:09:24;97233.66;;;24.14;41.32
70954;BME280;58618;47.490;8.736;2022-07-12T11:12:14;97238.00;;;24.07;40.06
70954;BME280;58618;47.490;8.736;2022-07-12T11:15:04;97230.47;;;24.21;40.64
70954;BME280;58618;47.490;8.736;2022-07-12T11:17:53;97223.56;;;24.32;39.80
70954;BME280;58618;47.490;8.736;2022-07-12T11:20:41;97223.41;;;24.25;39.43
70954;BME280;58618;47.490;8.736;2022-07-12T11:23:29;97222.03;;;24.31;40.55
70954;BME280;58618;47.490;8.736;2022-07-12T11:26:17;97217.84;;;24.30;39.15
70954;BME280;58618;47.490;8.736;2022-07-12T11:29:04;97213.00;;;24.32;40.94
70954;BME280;58618;47.490;8.736;2022-07-12T11:31:59;97223.56;;;24.32;40.29
70954;BME280;58618;47.490;8.736;2022-07-12T11:34:54;97199.13;;;24.35;40.50
70954;BME280;58618;47.490;8.736;2022-07-12T11:37:50;97208.56;;;24.36;40.30
70954;BME280;58618;47.490;8.736;2022-07-12T11:40:38;97203.56;;;24.31;39.23
70954;BME280;58618;47.490;8.736;2022-07-12T11:43:26;97202.13;;;23.86;39.80
70954;BME280;58618;47.490;8.736;2022-07-12T11:46:14;97200.56;;;24.17;40.11
70954;BME280;58618;47.490;8.736;2022-07-12T11:49:02;97201.75;;;24.35;40.53
70954;BME280;58618;47.490;8.736;2022-07-12T11:51:51;97207.63;;;24.28;38.28
70954;BME280;58618;47.490;8.736;2022-07-12T11:54:39;97201.22;;;24.45;38.73
70954;BME280;58618;47.490;8.736;2022-07-12T11:57:26;97192.50;;;24.60;40.05
70954;BME280;58618;47.490;8.736;2022-07-12T12:00:20;97195.91;;;24.61;39.07
70954;BME280;58618;47.490;8.736;2022-07-12T12:03:09;97204.19;;;24.78;40.07
70954;BME280;58618;47.490;8.736;2022-07-12T12:05:57;97191.13;;;24.66;39.34
70954;BME280;58618;47.490;8.736;2022-07-12T12:08:45;97196.38;;;24.66;37.27
70954;BME280;58618;47.490;8.736;2022-07-12T12:11:34;97192.09;;;24.77;37.66
70954;BME280;58618;47.490;8.736;2022-07-12T12:14:22;97185.00;;;24.81;37.21
70954;BME280;58618;47.490;8.736;2022-07-12T12:17:12;97190.63;;;24.80;37.21
70954;BME280;58618;47.490;8.736;2022-07-12T12:20:08;97177.44;;;24.61;39.42
70954;BME280;58618;47.490;8.736;2022-07-12T12:22:57;97186.66;;;24.70;37.67
70954;BME280;58618;47.490;8.736;2022-07-12T12:25:46;97189.88;;;24.79;39.11
70954;BME280;58618;47.490;8.736;2022-07-12T12:28:40;97189.19;;;24.82;39.46
70954;BME280;58618;47.490;8.736;2022-07-12T12:31:28;97203.44;;;24.97;39.78
70954;BME280;58618;47.490;8.736;2022-07-12T12:34:15;97194.19;;;25.07;38.83
70954;BME280;58618;47.490;8.736;2022-07-12T12:37:03;97187.63;;;24.81;38.85
70954;BME280;58618;47.490;8.736;2022-07-12T12:39:51;97196.75;;;24.84;35.66
70954;BME280;58618;47.490;8.736;2022-07-12T12:42:39;97199.31;;;24.80;37.55
70954;BME280;58618;47.490;8.736;2022-07-12T12:45:27;97193.31;;;24.64;38.30
70954;BME280;58618;47.490;8.736;2022-07-12T12:48:18;97184.31;;;24.65;38.78
70954;BME280;58618;47.490;8.736;2022-07-12T12:51:07;97192.25;;;24.85;39.38
70954;BME280;58618;47.490;8.736;2022-07-12T12:53:55;97177.03;;;24.78;38.08
70954;BME280;58618;47.490;8.736;2022-07-12T12:56:43;97185.28;;;24.76;35.49
70954;BME280;58618;47.490;8.736;2022-07-12T12:59:32;97203.97;;;24.87;35.31
70954;BME280;58618;47.490;8.736;2022-07-12T13:02:20;97199.91;;;24.90;36.63
70954;BME280;58618;47.490;8.736;2022-07-12T13:05:10;97202.56;;;24.90;36.05
70954;BME280;58618;47.490;8.736;2022-07-12T13:07:57;97204.47;;;24.93;36.72
70954;BME280;58618;47.490;8.736;2022-07-12T13:10:45;97195.09;;;25.14;37.62
70954;BME280;58618;47.490;8.736;2022-07-12T13:13:33;97202.25;;;25.14;38.34
70954;BME280;58618;47.490;8.736;2022-07-12T13:16:22;97196.28;;;24.98;39.30
70954;BME280;58618;47.490;8.736;2022-07-12T13:19:09;97179.88;;;25.08;39.15
70954;BME280;58618;47.490;8.736;2022-07-12T13:21:57;97182.22;;;25.13;37.16
70954;BME280;58618;47.490;8.736;2022-07-12T13:24:44;97193.34;;;25.03;37.61
70954;BME280;58618;47.490;8.736;2022-07-12T13:27:32;97187.78;;;25.27;37.72
70954;BME280;58618;47.490;8.736;2022-07-12T13:30:19;97190.56;;;25.15;38.46
70954;BME280;58618;47.490;8.736;2022-07-12T13:33:08;97190.56;;;25.15;35.37
70954;BME280;58618;47.490;8.736;2022-07-12T13:35:57;97186.81;;;25.16;36.40
70954;BME280;58618;47.490;8.736;2022-07-12T13:38:44;97176.47;;;25.07;37.46
70954;BME280;58618;47.490;8.736;2022-07-12T13:41:31;97181.13;;;25.14;37.75
70954;BME280;58618;47.490;8.736;2022-07-12T13:44:18;97178.09;;;25.35;37.51
70954;BME280;58618;47.490;8.736;2022-07-12T13:47:06;97170.81;;;25.28;37.33
70954;BME280;58618;47.490;8.736;2022-07-12T13:49:54;97178.31;;;25.49;37.50
70954;BME280;58618;47.490;8.736;2022-07-12T13:52:43;97175.59;;;25.64;36.77
70954;BME280;58618;47.490;8.736;2022-07-12T13:55:30;97168.59;;;25.53;36.92
70954;BME280;58618;47.490;8.736;2022-07-12T13:58:18;97175.34;;;25.50;36.13
70954;BME280;58618;47.490;8.736;2022-07-12T14:01:05;97173.25;;;25.59;34.93
70954;BME280;58618;47.490;8.736;2022-07-12T14:03:53;97171.94;;;25.73;34.45
70954;BME280;58618;47.490;8.736;2022-07-12T14:06:41;97175.63;;;25.45;36.56
70954;BME280;58618;47.490;8.736;2022-07-12T14:09:28;97164.75;;;25.50;36.73
70954;BME280;58618;47.490;8.736;2022-07-12T14:12:16;97171.88;;;25.46;36.00
70954;BME280;58618;47.490;8.736;2022-07-12T14:15:04;97170.25;;;25.61;35.93
70954;BME280;58618;47.490;8.736;2022-07-12T14:18:22;97170.25;;;25.61;36.64
70954;BME280;58618;47.490;8.736;2022-07-12T14:21:09;97174.09;;;25.63;34.75
70954;BME280;58618;47.490;8.736;2022-07-12T14:23:58;97166.66;;;25.73;34.83
70954;BME280;58618;47.490;8.736;2022-07-12T14:26:47;97162.50;;;25.72;35.08
70954;BME280;58618;47.490;8.736;2022-07-12T14:29:34;97160.44;;;25.61;36.15
70954;BME280;58618;47.490;8.736;2022-07-12T14:32:22;97166.53;;;25.65;35.60
70954;BME280;58618;47.490;8.736;2022-07-12T14:35:10;97153.75;;;25.68;35.73
70954;BME280;58618;47.490;8.736;2022-07-12T14:37:57;97166.88;;;25.87;33.74
70954;BME280;58618;47.490;8.736;2022-07-12T14:40:47;97150.94;;;25.80;33.18
70954;BME280;58618;47.490;8.736;2022-07-12T14:43:36;97146.00;;;25.78;34.47
70954;BME280;58618;47.490;8.736;2022-07-12T14:46:23;97142.22;;;25.79;34.41
70954;BME280;58618;47.490;8.736;2022-07-12T14:49:11;97134.94;;;25.73;33.92
70954;BME280;58618;47.490;8.736;2022-07-12T14:51:58;97147.91;;;25.81;34.62
70954;BME280;58618;47.490;8.736;2022-07-12T14:54:46;97138.75;;;25.75;33.29
70954;BME280;58618;47.490;8.736;2022-07-12T14:57:35;97142.56;;;25.78;32.94